Time;durP1;ratioP1;P1;durP2;ratioP2;P2;SDS_P1;SDS_P2;PMS_P1;PMS_P2;Temp;Humidity;BMP_temperature;BMP_pressure;BME280_temperature;BME280_humidity;BME280_pressure;Samples;Min_cycle;Max_cycle;Signal;HPM_P1;HPM_P2
2023/01/12 06:33:55;;;;;;;14.07;4.15;;;;;;;22.29;39.42;101463.63;5109417;27;20445;-43
2023/01/12 06:36:23;;;;;;;15.43;4.65;;;;;;;22.69;38.52;101462.94;5094983;28;20028;-41
2023/01/12 06:38:52;;;;;;;14.65;4.57;;;;;;;22.98;37.90;101462.81;5092121;28;20036;-41
2023/01/12 06:44:06;;;;;;;15.45;4.10;;;;;;;23.15;37.60;101460.59;5083829;28;20521;-41
2023/01/12 06:46:34;;;;;;;16.52;4.43;;;;;;;23.30;37.15;101468.00;5072535;28;20056;-40
2023/01/12 06:49:01;;;;;;;18.23;4.15;;;;;;;23.38;36.85;101466.44;5091996;28;20032;-41
2023/01/12 06:51:29;;;;;;;14.00;4.60;;;;;;;23.39;37.22;101467.31;5093383;28;20451;-41
2023/01/12 06:53:57;;;;;;;13.02;3.95;;;;;;;23.42;37.08;101472.59;5090511;28;20107;-43
2023/01/12 06:56:26;;;;;;;12.30;3.42;;;;;;;23.44;37.02;101470.91;5092176;28;20055;-41
2023/01/12 06:58:53;;;;;;;15.52;3.80;;;;;;;23.52;37.04;101469.38;5096771;28;20042;-42
2023/01/12 07:01:21;;;;;;;10.45;3.63;;;;;;;23.41;37.08;101456.03;5083413;28;20040;-43
2023/01/12 07:03:49;;;;;;;13.00;4.22;;;;;;;23.56;36.68;101460.75;5103555;28;20016;-43
2023/01/12 07:06:17;;;;;;;14.23;4.22;;;;;;;23.55;36.62;101455.44;5098125;28;20039;-44
2023/01/12 07:08:44;;;;;;;12.43;3.35;;;;;;;23.53;36.96;101465.91;5096839;28;20081;-45
2023/01/12 07:11:14;;;;;;;13.13;3.58;;;;;;;23.51;36.75;101458.00;5101040;28;20031;-43
2023/01/12 07:13:41;;;;;;;12.27;3.50;;;;;;;23.48;36.62;101463.19;5077244;28;20490;-43
2023/01/12 07:16:09;;;;;;;11.45;3.10;;;;;;;23.44;37.18;101470.91;5077090;28;20373;-41
2023/01/12 07:18:37;;;;;;;11.43;3.80;;;;;;;23.42;36.92;101460.41;5068352;28;20372;-43
2023/01/12 07:21:06;;;;;;;10.68;3.72;;;;;;;23.52;36.95;101474.59;5114772;28;20058;-41
2023/01/12 07:23:36;;;;;;;14.55;4.28;;;;;;;23.46;36.98;101472.75;5083244;28;20039;-44
2023/01/12 07:26:04;;;;;;;12.20;3.78;;;;;;;23.56;36.71;101480.78;5071230;28;20028;-40
2023/01/12 07:28:32;;;;;;;15.60;4.15;;;;;;;23.55;36.72;101458.97;5089851;28;20395;-41
2023/01/12 07:31:01;;;;;;;15.43;3.35;;;;;;;23.65;36.31;101466.19;5075557;28;20021;-42
2023/01/12 07:33:29;;;;;;;13.50;4.07;;;;;;;23.67;36.41;101469.72;5083624;28;20078;-43
2023/01/12 07:35:59;;;;;;;13.25;3.13;;;;;;;23.53;36.78;101479.00;5080292;28;20120;-42
2023/01/12 07:38:27;;;;;;;11.13;3.58;;;;;;;23.69;36.23;101477.59;5077722;28;20031;-42
2023/01/12 07:40:59;;;;;;;11.90;3.88;;;;;;;23.61;36.65;101471.31;5076242;28;20025;-40
2023/01/12 07:43:26;;;;;;;14.73;4.00;;;;;;;23.60;36.71;101465.19;5080671;28;20025;-40
2023/01/12 07:45:59;;;;;;;13.38;3.47;;;;;;;23.62;36.38;101457.38;5080314;28;20119;-40
2023/01/12 07:48:26;;;;;;;14.23;3.63;;;;;;;23.51;36.90;101450.13;5078776;28;20060;-42
2023/01/12 07:50:54;;;;;;;13.95;4.20;;;;;;;23.44;37.05;101468.28;5079637;28;20040;-42
2023/01/12 07:53:21;;;;;;;17.27;4.30;;;;;;;23.49;36.62;101459.72;5075138;28;20032;-41
2023/01/12 07:55:48;;;;;;;60.15;31.15;;;;;;;23.48;36.75;101457.94;5058738;28;20033;-40
2023/01/12 07:58:16;;;;;;;64.35;36.08;;;;;;;23.56;36.55;101452.88;5079359;28;20048;-41
2023/01/12 08:00:43;;;;;;;54.15;30.75;;;;;;;23.58;36.68;101447.66;5075804;28;20036;-40
2023/01/12 08:03:13;;;;;;;50.10;27.02;;;;;;;23.55;36.49;101451.13;5078955;28;20021;-41
2023/01/12 08:05:41;;;;;;;47.60;25.50;;;;;;;23.56;36.69;101454.59;5057950;28;20025;-43
2023/01/12 08:08:08;;;;;;;44.83;23.02;;;;;;;23.58;36.63;101453.78;5077058;28;20022;-43
2023/01/12 08:10:36;;;;;;;41.83;20.30;;;;;;;23.62;36.85;101450.38;5076424;28;20032;-41
2023/01/12 08:13:04;;;;;;;34.33;18.45;;;;;;;23.75;36.70;101454.16;5078478;28;20032;-40
2023/01/12 08:15:35;;;;;;;32.13;17.08;;;;;;;23.67;36.73;101442.63;5075595;28;20119;-43
2023/01/12 08:18:08;;;;;;;33.70;16.90;;;;;;;23.83;36.47;101438.59;5075556;28;20483;-43
2023/01/12 08:20:37;;;;;;;25.50;14.55;;;;;;;23.80;36.68;101439.44;5074841;28;20020;-41
2023/01/12 08:23:13;;;;;;;25.80;13.10;;;;;;;23.82;36.35;101442.97;5080913;28;20372;-42
2023/01/12 08:25:43;;;;;;;26.10;13.90;;;;;;;23.73;36.88;101450.63;5057253;28;20035;-41
2023/01/12 08:28:15;;;;;;;32.08;16.00;;;;;;;23.64;36.99;101445.19;5058798;28;20111;-42
2023/01/12 08:30:46;;;;;;;25.55;13.93;;;;;;;23.63;37.16;101453.91;5074899;28;20039;-40
2023/01/12 08:33:14;;;;;;;31.08;15.20;;;;;;;23.62;37.18;101439.91;5077906;28;20049;-41
2023/01/12 08:35:42;;;;;;;26.70;12.77;;;;;;;23.60;37.14;101432.88;5075356;28;20026;-41
2023/01/12 08:38:09;;;;;;;27.45;12.50;;;;;;;23.66;37.41;101444.38;5078256;28;20021;-40
2023/01/12 08:46:10;;;;;;;18.23;9.00;;;;;;;23.86;37.34;101422.06;5078516;28;20127;-40
2023/01/12 08:48:38;;;;;;;18.70;8.10;;;;;;;24.07;37.11;101446.13;5079472;28;20029;-41
2023/01/12 08:51:07;;;;;;;17.80;7.97;;;;;;;24.08;37.11;101436.50;5079151;28;20082;-42
2023/01/12 08:53:34;;;;;;;18.38;7.53;;;;;;;24.07;36.85;101438.25;5077351;28;20073;-41
2023/01/12 08:56:02;;;;;;;19.92;7.65;;;;;;;24.18;36.86;101434.97;5074812;28;20430;-40
2023/01/12 08:58:30;;;;;;;17.02;8.15;;;;;;;24.26;36.67;101447.38;5075517;28;20025;-43
2023/01/12 09:01:05;;;;;;;15.05;6.90;;;;;;;24.29;36.57;101430.81;5076539;28;20107;-41
2023/01/12 09:03:32;;;;;;;13.90;6.45;;;;;;;24.42;36.65;101413.56;5075117;28;20078;-42
2023/01/12 09:06:00;;;;;;;14.90;6.07;;;;;;;24.47;36.61;101426.78;5075479;28;20471;-44
2023/01/12 09:08:27;;;;;;;13.65;5.65;;;;;;;24.47;36.58;101432.91;5058255;28;20044;-40
2023/01/12 09:11:02;;;;;;;15.60;5.82;;;;;;;24.45;36.82;101418.00;5076784;28;20020;-41
2023/01/12 09:13:30;;;;;;;20.15;11.70;;;;;;;24.45;36.48;101412.75;5073617;28;20446;-41
2023/01/12 09:16:07;;;;;;;20.25;11.85;;;;;;;24.55;36.63;101433.94;5056622;28;20024;-40
2023/01/12 09:18:35;;;;;;;21.33;10.80;;;;;;;24.58;36.43;101433.97;5077456;28;20035;-42
2023/01/12 09:21:05;;;;;;;18.05;8.65;;;;;;;24.56;36.67;101416.44;5074493;28;20028;-42
2023/01/12 09:23:33;;;;;;;17.63;8.40;;;;;;;24.65;36.41;101423.59;5081202;28;20051;-41
2023/01/12 09:26:13;;;;;;;15.60;8.20;;;;;;;24.62;36.60;101415.66;5080565;28;20025;-42
2023/01/12 09:28:41;;;;;;;17.83;8.00;;;;;;;24.68;36.43;101416.66;5055869;28;20038;-42
2023/01/12 09:31:11;;;;;;;17.05;7.57;;;;;;;24.72;36.49;101425.50;5075803;28;20031;-40
2023/01/12 09:33:39;;;;;;;17.23;7.38;;;;;;;24.69;36.68;101428.91;5075554;28;20048;-40
2023/01/12 09:36:10;;;;;;;16.08;6.85;;;;;;;24.69;36.26;101430.66;5084037;28;20085;-40
2023/01/12 09:38:39;;;;;;;15.15;5.88;;;;;;;24.77;36.54;101423.81;5082303;28;20068;-41
2023/01/12 09:47:44;;;;;;;13.88;5.25;;;;;;;24.88;36.40;101416.13;5078103;28;20024;-40
2023/01/12 09:50:20;;;;;;;14.80;5.63;;;;;;;24.91;36.73;101434.56;5072898;28;20124;-41
2023/01/12 09:53:03;;;;;;;15.10;6.38;;;;;;;24.93;36.39;101431.94;5059264;28;20032;-41
2023/01/12 09:55:41;;;;;;;12.68;5.03;;;;;;;24.98;36.29;101431.19;5062721;28;20115;-40
2023/01/12 09:58:37;;;;;;;13.68;5.03;;;;;;;24.99;36.27;101432.94;5064406;28;20032;-41
2023/01/12 10:01:12;;;;;;;12.32;4.57;;;;;;;25.03;35.89;101444.38;5072608;28;20043;-43
2023/01/12 10:03:41;;;;;;;14.18;5.00;;;;;;;25.04;36.24;101438.28;5078607;28;20028;-41
2023/01/12 10:06:16;;;;;;;12.95;5.45;;;;;;;25.00;36.13;101442.56;5055981;28;20032;-40
2023/01/12 10:08:49;;;;;;;14.40;5.13;;;;;;;25.09;36.18;101438.34;5078229;28;20078;-41
2023/01/12 10:11:20;;;;;;;11.15;4.45;;;;;;;25.06;36.08;101431.31;5076175;28;20024;-41
2023/01/12 10:13:48;;;;;;;10.40;4.20;;;;;;;25.10;35.88;101440.97;5072461;28;20028;-42
2023/01/12 10:16:24;;;;;;;11.75;4.30;;;;;;;25.06;36.13;101425.16;5072817;28;20231;-41
2023/01/12 10:18:53;;;;;;;11.55;4.13;;;;;;;25.15;35.95;101418.31;5061188;28;20024;-42
2023/01/12 10:21:23;;;;;;;13.57;4.35;;;;;;;25.13;35.97;101424.41;5078133;28;20020;-42
2023/01/12 10:23:54;;;;;;;15.98;4.82;;;;;;;25.11;36.08;101407.75;5093231;28;20032;-41
2023/01/12 10:26:23;;;;;;;10.77;3.47;;;;;;;25.12;36.17;101407.75;5055745;28;20048;-42
2023/01/12 10:28:53;;;;;;;11.77;4.38;;;;;;;25.13;36.03;101412.16;5080277;28;20059;-41
2023/01/12 10:31:23;;;;;;;14.10;4.25;;;;;;;25.15;35.94;101406.94;5088843;28;20436;-42
2023/01/12 10:34:10;;;;;;;12.20;3.90;;;;;;;25.13;36.01;101404.28;5076926;28;20076;-42
2023/01/12 10:36:48;;;;;;;12.35;4.25;;;;;;;25.16;35.99;101404.34;5080134;28;20051;-40
2023/01/12 10:39:37;;;;;;;12.60;4.38;;;;;;;25.16;35.86;101413.94;5077182;28;20066;-43
2023/01/12 10:45:10;;;;;;;;;;;;;;;25.18;35.74;101406.97;5066349;28;20045;-42
2023/01/12 10:47:38;;;;;;;11.40;4.40;;;;;;;25.27;35.69;101400.97;5076288;28;19935;-43
2023/01/12 10:50:27;;;;;;;13.23;3.40;;;;;;;25.26;35.92;101401.81;5079331;28;20024;-42
2023/01/12 10:53:00;;;;;;;13.38;4.38;;;;;;;25.21;35.84;101391.28;5063598;28;20024;-44
2023/01/12 10:55:32;;;;;;;11.70;3.42;;;;;;;25.21;35.73;101380.75;5073636;28;20103;-41
2023/01/12 10:58:00;;;;;;;13.00;4.13;;;;;;;25.25;35.82;101381.69;5076112;28;20020;-42
2023/01/12 11:00:28;;;;;;;13.32;4.25;;;;;;;25.29;35.74;101381.78;5059862;28;20394;-40
2023/01/12 11:02:57;;;;;;;11.45;3.72;;;;;;;25.19;35.70;101377.22;5076928;28;20112;-42
2023/01/12 11:05:37;;;;;;;12.15;3.97;;;;;;;25.19;35.88;101366.72;5061643;28;20033;-40
2023/01/12 11:08:27;;;;;;;17.58;4.65;;;;;;;25.18;35.83;101367.59;5072938;28;20032;-41
2023/01/12 11:10:56;;;;;;;10.57;3.65;;;;;;;25.24;35.61;101377.28;5071666;28;20131;-41
2023/01/12 11:13:26;;;;;;;12.70;4.00;;;;;;;25.28;35.54;101374.75;5076519;28;20502;-40
2023/01/12 11:16:06;;;;;;;13.23;4.00;;;;;;;25.30;35.65;101370.41;5059727;28;20045;-42
2023/01/12 11:18:40;;;;;;;12.93;3.47;;;;;;;25.28;35.40;101369.50;5081318;28;20017;-40
2023/01/12 11:21:10;;;;;;;9.95;3.13;;;;;;;25.31;35.57;101372.19;5060183;28;20033;-41
2023/01/12 11:23:38;;;;;;;11.55;3.60;;;;;;;25.31;35.38;101355.53;5057736;28;20055;-40
2023/01/12 11:26:20;;;;;;;13.52;3.95;;;;;;;25.25;35.30;101361.56;5076205;28;20089;-40
2023/01/12 11:28:51;;;;;;;13.35;3.90;;;;;;;25.30;35.33;101357.28;5063807;28;20032;-40
2023/01/12 11:31:39;;;;;;;13.73;4.13;;;;;;;25.32;35.73;101358.16;5061467;28;20020;-43
2023/01/12 11:34:17;;;;;;;11.80;3.33;;;;;;;25.31;35.16;101345.91;5093101;28;20043;-41
2023/01/12 11:36:50;;;;;;;10.88;3.15;;;;;;;25.22;35.42;101327.41;5086223;28;20095;-42
2023/01/12 11:39:23;;;;;;;11.20;3.53;;;;;;;25.20;35.82;101339.63;5078933;28;20033;-43
2023/01/12 11:44:57;;;;;;;15.18;4.13;;;;;;;25.25;35.34;101340.56;5056060;28;20028;-41
2023/01/12 11:47:29;;;;;;;13.47;3.63;;;;;;;25.36;35.35;101334.56;5068806;28;20116;-42
2023/01/12 11:50:23;;;;;;;15.57;4.43;;;;;;;25.32;35.15;101331.91;5097645;28;20296;-42
2023/01/12 11:52:51;;;;;;;12.73;4.32;;;;;;;25.26;35.26;101317.81;5077527;28;20360;-41
2023/01/12 11:55:48;;;;;;;11.13;3.90;;;;;;;25.25;35.26;101322.19;5076347;28;20020;-41
2023/01/12 11:58:17;;;;;;;13.30;3.88;;;;;;;25.20;35.71;101315.97;5065558;28;20033;-41
2023/01/12 12:00:49;;;;;;;11.18;3.50;;;;;;;25.24;35.60;101316.91;5062478;28;20031;-42
2023/01/12 12:03:18;;;;;;;10.73;3.03;;;;;;;25.24;35.55;101307.28;5076041;28;20491;-40
2023/01/12 12:05:57;;;;;;;10.48;3.50;;;;;;;25.24;35.44;101301.16;5076987;28;20028;-40
2023/01/12 12:08:38;;;;;;;8.25;3.08;;;;;;;25.17;35.62;101280.09;5059468;28;20033;-42
2023/01/12 12:11:28;;;;;;;8.52;2.88;;;;;;;25.24;35.47;101293.25;5078835;28;20446;-42
2023/01/12 12:13:56;;;;;;;11.70;3.45;;;;;;;25.47;35.18;101288.34;5071261;28;20075;-41
2023/01/12 12:16:43;;;;;;;10.90;3.08;;;;;;;25.40;35.30;101299.59;5061720;28;20021;-42
2023/01/12 12:19:33;;;;;;;9.73;3.33;;;;;;;25.36;35.32;101289.91;5078750;28;20024;-43
2023/01/12 12:22:20;;;;;;;13.13;3.22;;;;;;;25.34;35.42;101288.16;5057450;28;20017;-41
2023/01/12 12:25:08;;;;;;;11.57;3.35;;;;;;;25.31;35.85;101280.28;5069394;28;20491;-41
2023/01/12 12:28:14;;;;;;;12.05;3.28;;;;;;;25.27;35.88;101273.22;5050701;28;20040;-44
2023/01/12 12:30:44;;;;;;;;;;;;;;;25.32;35.42;101263.63;5049937;28;20037;-43
2023/01/12 12:33:36;;;;;;;12.55;3.53;;;;;;;25.41;35.21;101254.09;5075305;28;19916;-40
2023/01/12 12:36:16;;;;;;;12.35;3.35;;;;;;;25.54;35.15;101261.28;5053567;28;20036;-43
2023/01/12 12:38:53;;;;;;;13.75;4.22;;;;;;;25.52;35.22;101246.38;5044149;28;20028;-41
2023/01/12 12:45:29;;;;;;;10.27;3.33;;;;;;;25.48;35.18;101237.59;5070970;28;20033;-41
2023/01/12 12:48:01;;;;;;;11.57;3.25;;;;;;;25.45;35.39;101235.78;5074708;28;20111;-41
2023/01/12 12:50:32;;;;;;;11.68;4.05;;;;;;;25.55;35.04;101228.91;5062025;28;20472;-40
2023/01/12 12:53:07;;;;;;;11.70;3.92;;;;;;;25.46;35.18;101218.31;5074768;28;20032;-43
2023/01/12 12:55:36;;;;;;;10.05;3.38;;;;;;;25.53;35.01;101217.50;5058809;28;20028;-42
2023/01/12 12:58:04;;;;;;;9.90;3.80;;;;;;;25.49;35.34;101218.31;5061367;28;20033;-41
2023/01/12 13:00:42;;;;;;;10.23;2.90;;;;;;;25.34;35.42;101198.00;5059203;28;20103;-41
2023/01/12 13:03:10;;;;;;;10.63;3.63;;;;;;;25.54;35.10;101205.25;5059380;28;20036;-42
2023/01/12 13:05:49;;;;;;;13.15;4.15;;;;;;;25.47;35.21;101204.31;5074855;28;20031;-43
2023/01/12 13:08:21;;;;;;;10.07;3.13;;;;;;;25.50;35.31;101195.56;5057260;28;20395;-42
2023/01/12 13:10:51;;;;;;;10.38;2.88;;;;;;;25.53;35.16;101191.22;5058035;28;20118;-48
2023/01/12 13:13:31;;;;;;;9.90;3.38;;;;;;;25.56;35.10;101183.38;5056649;28;20403;-42
2023/01/12 13:16:17;;;;;;;12.27;4.22;;;;;;;25.62;34.86;101203.56;5064099;28;20028;-41
2023/01/12 13:19:03;;;;;;;10.13;3.17;;;;;;;25.60;34.99;101192.16;5075844;28;20060;-41
2023/01/12 13:21:54;;;;;;;10.95;3.17;;;;;;;25.50;34.96;101191.19;5074373;28;20033;-40
2023/01/12 13:24:25;;;;;;;14.15;4.63;;;;;;;25.47;35.29;101178.03;5076466;28;20433;-40
2023/01/12 13:26:56;;;;;;;10.60;3.47;;;;;;;25.44;35.11;101178.00;5059433;28;20043;-41
2023/01/12 13:29:24;;;;;;;11.30;3.47;;;;;;;25.53;34.95;101179.84;5074641;28;20047;-42
2023/01/12 13:31:55;;;;;;;12.75;4.07;;;;;;;25.59;34.87;101169.38;5077448;28;20089;-41
2023/01/12 13:34:31;;;;;;;10.20;3.30;;;;;;;25.57;34.98;101193.03;5076665;28;20158;-42
2023/01/12 13:37:19;;;;;;;12.45;3.58;;;;;;;25.50;35.10;101171.94;5080354;28;20035;-41
2023/01/12 13:40:04;;;;;;;8.18;2.95;;;;;;;25.42;35.20;101158.72;5052152;28;20044;-43
2023/01/12 13:43:13;;;;;;;13.10;3.88;;;;;;;25.43;35.03;101160.50;5058000;28;20494;-42
2023/01/12 13:45:21;;;;;;;10.20;3.13;;;;;;;25.58;35.07;101155.38;5051344;28;20132;-40
2023/01/12 13:47:50;;;;;;;12.82;4.22;;;;;;;25.47;35.18;101151.78;5046737;28;20032;-42
2023/01/12 13:50:22;;;;;;;13.95;3.88;;;;;;;25.44;35.46;101146.50;5059717;28;20032;-43
2023/01/12 13:53:01;;;;;;;10.13;3.22;;;;;;;25.45;35.24;101143.00;5058129;28;20036;-40
2023/01/12 13:55:31;;;;;;;10.65;4.10;;;;;;;25.48;35.19;101135.16;5095570;28;20020;-43
2023/01/12 13:58:04;;;;;;;12.45;3.60;;;;;;;25.48;35.15;101128.16;5076461;28;20059;-42
2023/01/12 14:00:32;;;;;;;9.77;3.17;;;;;;;25.51;35.11;101134.28;5072277;28;20055;-44
2023/01/12 14:03:01;;;;;;;11.90;4.07;;;;;;;25.47;35.10;101146.53;5061445;28;20493;-42
2023/01/12 14:05:49;;;;;;;14.35;3.65;;;;;;;25.63;34.69;101140.56;5080978;28;20054;-40
2023/01/12 14:08:37;;;;;;;11.57;3.00;;;;;;;25.60;35.03;101135.25;5064978;28;20090;-41
2023/01/12 14:11:16;;;;;;;10.68;3.53;;;;;;;25.60;34.77;101129.13;5073484;28;20040;-41
2023/01/12 14:17:58;;;;;;;11.48;3.33;;;;;;;25.54;35.27;101131.69;5073474;28;20086;-45
2023/01/12 14:20:02;;;;;;;9.02;3.13;;;;;;;25.46;35.06;101124.63;5072577;28;20120;-42
2023/01/12 14:22:30;;;;;;;9.20;3.45;;;;;;;25.55;34.82;101131.69;5052591;28;20539;-42
2023/01/12 14:25:14;;;;;;;11.25;3.38;;;;;;;25.48;34.95;101128.16;5072726;28;20165;-42
2023/01/12 14:27:53;;;;;;;18.52;4.72;;;;;;;25.50;35.16;101124.66;5072925;28;20033;-43
2023/01/12 14:30:22;;;;;;;11.20;3.85;;;;;;;25.42;35.14;101121.97;5077280;28;20421;-43
2023/01/12 14:32:50;;;;;;;12.13;3.45;;;;;;;25.51;35.04;101122.03;5072611;28;20049;-43
2023/01/12 14:35:21;;;;;;;13.38;3.40;;;;;;;25.50;34.84;101122.88;5073380;28;20056;-41
2023/01/12 14:37:55;;;;;;;13.23;4.07;;;;;;;25.45;34.87;101119.38;5075393;28;20031;-43
2023/01/12 14:40:29;;;;;;;11.73;3.25;;;;;;;25.48;35.16;101120.25;5059795;28;20044;-41
2023/01/12 14:46:37;;;;;;;11.85;3.58;;;;;;;25.48;34.90;101116.78;5054012;28;20044;-41
2023/01/12 14:48:42;;;;;;;10.73;2.88;;;;;;;25.47;35.07;101120.25;5073150;28;20115;-45
2023/01/12 14:51:10;;;;;;;10.80;3.35;;;;;;;25.42;35.12;101119.34;5077907;28;20074;-41
2023/01/12 14:53:40;;;;;;;11.60;3.47;;;;;;;25.36;35.26;101114.88;5076911;28;20545;-41
2023/01/12 14:56:19;;;;;;;17.30;4.20;;;;;;;25.41;35.26;101118.41;5081760;28;20103;-44
2023/01/12 14:58:48;;;;;;;12.60;3.60;;;;;;;25.34;35.27;101116.59;5066031;28;20058;-43
2023/01/12 15:01:31;;;;;;;14.63;3.78;;;;;;;25.33;35.15;101112.22;5078590;28;20078;-44
2023/01/12 15:03:59;;;;;;;12.40;3.45;;;;;;;25.37;35.16;101113.09;5064698;28;20028;-45
2023/01/12 15:06:26;;;;;;;12.18;3.30;;;;;;;25.38;35.42;101114.88;5059603;28;20021;-43
2023/01/12 15:08:59;;;;;;;10.93;3.22;;;;;;;25.38;35.27;101118.41;5058580;28;20640;-50
2023/01/12 15:11:35;;;;;;;15.27;3.17;;;;;;;25.38;35.19;101107.00;5054432;28;20460;-44
2023/01/12 15:14:05;;;;;;;12.52;3.00;;;;;;;25.38;35.24;101115.78;5080911;28;20029;-42
2023/01/12 15:25:37;;;;;;;11.55;3.47;;;;;;;25.34;35.25;101095.59;5049652;28;20041;-41
2023/01/12 15:27:43;;;;;;;9.93;2.90;;;;;;;25.36;35.15;101090.34;5072054;28;20408;-46
2023/01/12 15:30:11;;;;;;;11.38;3.78;;;;;;;25.30;35.11;101101.66;5064197;28;20121;-45
2023/01/12 15:32:41;;;;;;;13.05;3.53;;;;;;;25.34;35.42;101109.59;5075681;28;20125;-41
2023/01/12 15:35:20;;;;;;;12.63;3.80;;;;;;;25.45;35.07;101106.22;5077649;28;20429;-43
2023/01/12 15:37:48;;;;;;;11.25;3.35;;;;;;;25.42;35.31;101100.94;5061931;28;20028;-46
2023/01/12 15:40:16;;;;;;;15.00;5.78;;;;;;;25.32;35.52;101120.94;5059537;28;20040;-48
2023/01/12 15:42:44;;;;;;;21.98;8.50;;;;;;;25.30;35.64;101118.31;5059348;28;20024;-43
2023/01/12 15:45:17;;;;;;;22.25;11.43;;;;;;;25.25;35.55;101130.53;5076258;28;20028;-41
2023/01/12 15:47:46;;;;;;;38.25;14.77;;;;;;;25.19;35.61;101117.31;5057398;28;20025;-44
2023/01/12 15:50:13;;;;;;;32.60;16.42;;;;;;;25.18;35.42;101105.94;5077791;28;20103;-46
2023/01/12 15:52:41;;;;;;;37.75;20.25;;;;;;;25.20;35.75;101113.81;5075313;28;20024;-45
2023/01/12 15:55:15;;;;;;;40.47;22.70;;;;;;;25.18;35.70;101115.56;5058440;28;20042;-42
2023/01/12 15:57:43;;;;;;;44.43;23.30;;;;;;;25.32;35.71;101116.56;5060732;28;20028;-46
2023/01/12 16:00:15;;;;;;;52.40;25.45;;;;;;;25.25;35.51;101109.50;5080274;28;20265;-46
2023/01/12 16:02:46;;;;;;;50.10;28.15;;;;;;;25.14;35.77;101111.16;5062622;28;20066;-47
2023/01/12 16:05:14;;;;;;;58.40;29.50;;;;;;;25.14;36.08;101114.66;5075539;28;20060;-44
2023/01/12 16:07:44;;;;;;;55.00;33.20;;;;;;;25.25;35.83;101114.75;5075933;28;20028;-43
2023/01/12 16:10:13;;;;;;;68.03;37.88;;;;;;;25.12;36.06;101111.13;5077657;28;20094;-45
2023/01/12 16:12:42;;;;;;;83.68;48.47;;;;;;;25.17;36.18;101125.19;5075336;28;20028;-42
2023/01/12 16:15:20;;;;;;;85.40;52.80;;;;;;;25.15;35.85;101123.41;5074505;28;20056;-46
2023/01/12 16:17:49;;;;;;;111.60;64.30;;;;;;;25.24;35.92;101109.47;5078837;28;20025;-43
2023/01/12 16:20:18;;;;;;;120.68;74.80;;;;;;;25.24;36.28;101117.34;5080859;28;20020;-44
2023/01/12 16:22:47;;;;;;;124.88;81.18;;;;;;;25.33;36.38;101110.44;5078189;28;20048;-42
2023/01/12 16:25:14;;;;;;;135.73;84.05;;;;;;;25.28;36.13;101124.41;5056777;28;20025;-45
2023/01/12 16:27:42;;;;;;;153.15;94.43;;;;;;;25.29;36.22;101127.06;5076372;28;20099;-42
2023/01/12 16:30:14;;;;;;;162.55;104.93;;;;;;;25.29;36.33;101136.66;5077517;28;20028;-44
2023/01/12 16:32:45;;;;;;;172.43;109.50;;;;;;;25.33;36.26;101139.34;5078180;28;20076;-44
2023/01/12 16:35:14;;;;;;;168.75;108.10;;;;;;;25.39;36.33;101117.53;5056948;28;20033;-43
2023/01/12 16:37:42;;;;;;;190.98;115.57;;;;;;;25.47;36.07;101121.13;5076167;28;20387;-41
2023/01/12 16:40:10;;;;;;;175.15;115.00;;;;;;;25.43;36.17;101118.47;5081368;28;20055;-42
2023/01/12 16:42:38;;;;;;;175.00;115.00;;;;;;;25.34;36.43;101124.47;5061548;28;20089;-40
2023/01/12 16:45:06;;;;;;;186.30;117.47;;;;;;;25.28;36.45;101116.53;5074285;28;20029;-42
2023/01/12 16:47:33;;;;;;;187.13;122.28;;;;;;;25.36;36.45;101113.97;5075249;28;20107;-41
2023/01/12 16:50:00;;;;;;;195.18;126.60;;;;;;;25.43;36.35;101107.97;5066660;28;20059;-41
2023/01/12 16:52:27;;;;;;;194.45;128.80;;;;;;;25.38;36.40;101115.78;5078776;28;20021;-41
2023/01/12 16:54:54;;;;;;;207.57;136.18;;;;;;;25.27;36.59;101113.03;5074504;28;20503;-44
2023/01/12 16:57:21;;;;;;;209.02;141.68;;;;;;;25.33;36.64;101105.19;5078148;28;20119;-43
2023/01/12 16:59:49;;;;;;;212.57;143.98;;;;;;;25.24;37.24;101107.75;5075968;28;20028;-43
2023/01/12 17:02:17;;;;;;;220.25;148.23;;;;;;;25.19;37.04;101109.44;5080647;28;20024;-46
2023/01/12 17:04:46;;;;;;;216.98;145.75;;;;;;;25.29;36.90;101113.94;5074516;28;20029;-44
2023/01/12 17:07:14;;;;;;;214.63;142.23;;;;;;;25.28;36.85;101104.28;5059220;28;20588;-47
2023/01/12 17:09:42;;;;;;;224.70;149.32;;;;;;;25.27;37.04;101113.03;5076933;28;20028;-42
2023/01/12 17:12:11;;;;;;;223.40;148.02;;;;;;;25.21;37.13;101112.09;5080270;28;20038;-41
2023/01/12 17:14:38;;;;;;;220.70;149.55;;;;;;;25.22;37.30;101119.13;5074236;28;20040;-43
2023/01/12 17:17:07;;;;;;;217.65;147.60;;;;;;;25.30;36.90;101112.19;5077279;28;20040;-47
2023/01/12 17:19:36;;;;;;;224.05;153.13;;;;;;;25.26;37.18;101111.28;5075410;28;20368;-44
2023/01/12 17:22:05;;;;;;;231.88;157.50;;;;;;;25.18;37.54;101105.94;5076085;28;20106;-40
2023/01/12 17:24:34;;;;;;;227.75;153.15;;;;;;;25.13;37.44;101106.78;5081740;28;20031;-42
2023/01/12 17:27:02;;;;;;;234.35;154.35;;;;;;;25.14;37.38;101121.66;5083467;28;20021;-48
2023/01/12 17:29:30;;;;;;;228.10;153.73;;;;;;;25.08;38.03;101114.56;5079777;28;20016;-43
2023/01/12 17:32:02;;;;;;;233.00;159.40;;;;;;;25.04;38.15;101110.19;5083354;28;20539;-46
2023/01/12 17:34:32;;;;;;;231.02;159.60;;;;;;;25.06;37.71;101123.31;5059405;28;21274;-45
2023/01/12 17:37:02;;;;;;;233.25;163.02;;;;;;;25.13;37.68;101115.50;5077606;28;20066;-42
2023/01/12 17:39:30;;;;;;;242.70;163.68;;;;;;;25.05;37.72;101111.03;5057840;28;20151;-41
2023/01/12 17:44:44;;;;;;;244.85;164.48;;;;;;;25.02;38.04;101112.78;5071259;28;20036;-41
2023/01/12 17:47:12;;;;;;;238.65;166.65;;;;;;;24.97;38.42;101117.09;5059643;28;20016;-41
2023/01/12 17:49:39;;;;;;;240.73;167.63;;;;;;;25.05;38.18;101117.19;5059011;28;20025;-41
2023/01/12 17:52:06;;;;;;;241.32;165.60;;;;;;;25.01;38.11;101115.38;5071566;28;20028;-41
2023/01/12 17:54:33;;;;;;;248.15;169.25;;;;;;;24.99;38.25;101111.84;5063842;28;20077;-40
2023/01/12 17:57:01;;;;;;;247.18;168.98;;;;;;;24.92;38.34;101116.16;5086290;28;20048;-42
2023/01/12 17:59:28;;;;;;;248.70;170.38;;;;;;;24.97;38.58;101122.34;5077021;28;20028;-44
2023/01/12 18:01:56;;;;;;;254.13;170.82;;;;;;;25.04;38.27;101110.19;5064979;28;20471;-41
2023/01/12 18:04:23;;;;;;;252.57;173.82;;;;;;;25.08;38.26;101111.09;5078567;28;20025;-41
2023/01/12 18:06:50;;;;;;;242.93;172.65;;;;;;;25.07;38.35;101120.69;5058178;28;20028;-42
2023/01/12 18:09:18;;;;;;;235.43;163.10;;;;;;;25.10;38.32;101117.22;5091993;28;20028;-41
2023/01/12 18:11:45;;;;;;;251.82;165.98;;;;;;;25.05;38.41;101117.19;5082796;28;20016;-43
2023/01/12 18:14:12;;;;;;;259.13;174.10;;;;;;;25.02;38.50;101118.00;5092086;28;20024;-42
2023/01/12 18:16:41;;;;;;;241.32;165.25;;;;;;;25.01;38.35;101123.25;5087593;28;20344;-43
2023/01/12 18:19:09;;;;;;;243.55;166.98;;;;;;;25.08;38.42;101124.22;5091928;28;20036;-42
2023/01/12 18:21:37;;;;;;;252.57;170.50;;;;;;;24.96;38.61;101117.06;5073829;28;20390;-42
2023/01/12 18:24:06;;;;;;;235.18;161.45;;;;;;;24.92;38.55;101110.91;5075212;28;20040;-44
2023/01/12 18:26:35;;;;;;;249.65;176.05;;;;;;;24.96;38.79;101125.84;5093119;28;20016;-42
2023/01/12 18:29:05;;;;;;;246.40;167.52;;;;;;;25.00;38.51;101127.63;5075551;28;20470;-42
2023/01/12 18:31:36;;;;;;;251.57;174.18;;;;;;;25.09;38.80;101124.22;5093026;28;20494;-42
2023/01/12 18:34:06;;;;;;;242.63;163.00;;;;;;;25.09;38.33;101123.34;5093261;28;20051;-42
2023/01/12 18:36:37;;;;;;;241.38;166.70;;;;;;;25.09;38.44;101115.47;5092871;28;20058;-43
2023/01/12 18:39:07;;;;;;;248.20;175.15;;;;;;;25.10;38.53;101122.47;5075102;28;20024;-47
2023/01/12 18:44:24;;;;;;;253.05;172.90;;;;;;;25.06;38.81;101116.31;5085448;28;20047;-49
2023/01/12 18:49:47;;;;;;;263.85;185.77;;;;;;;25.00;38.79;101122.38;5081762;28;20032;-43
2023/01/12 18:55:04;;;;;;;266.17;185.65;;;;;;;24.98;39.27;101124.13;5082877;28;20410;-42
2023/01/12 18:57:33;;;;;;;256.17;187.13;;;;;;;24.96;39.13;101128.47;5092856;28;20031;-40